sensor_id;sensor_type;location;lat;lon;timestamp;temperature;humidity
15879;DHT22;61999;51.514;14.614;2022-08-03T00:02:21;15.50;49.70
15879;DHT22;61999;51.514;14.614;2022-08-03T00:04:49;15.50;49.90
15879;DHT22;61999;51.514;14.614;2022-08-03T00:07:17;15.50;50.00
15879;DHT22;61999;51.514;14.614;2022-08-03T00:09:45;15.50;50.50
15879;DHT22;61999;51.514;14.614;2022-08-03T00:12:13;15.40;50.50
15879;DHT22;61999;51.514;14.614;2022-08-03T00:14:41;15.40;50.60
15879;DHT22;61999;51.514;14.614;2022-08-03T00:17:11;15.40;50.60
15879;DHT22;61999;51.514;14.614;2022-08-03T00:19:39;15.40;50.70
15879;DHT22;61999;51.514;14.614;2022-08-03T00:22:06;15.40;50.60
15879;DHT22;61999;51.514;14.614;2022-08-03T00:24:34;15.30;52.00
15879;DHT22;61999;51.514;14.614;2022-08-03T00:27:02;15.30;51.60
15879;DHT22;61999;51.514;14.614;2022-08-03T00:29:31;15.30;51.20
15879;DHT22;61999;51.514;14.614;2022-08-03T00:31:58;15.30;51.20
15879;DHT22;61999;51.514;14.614;2022-08-03T00:34:28;15.20;51.20
15879;DHT22;61999;51.514;14.614;2022-08-03T00:36:57;15.10;51.20
15879;DHT22;61999;51.514;14.614;2022-08-03T00:39:24;15.10;51.20
15879;DHT22;61999;51.514;14.614;2022-08-03T00:41:52;15.10;51.30
15879;DHT22;61999;51.514;14.614;2022-08-03T00:44:20;15.10;51.40
15879;DHT22;61999;51.514;14.614;2022-08-03T00:46:48;15.00;51.40
15879;DHT22;61999;51.514;14.614;2022-08-03T00:49:16;14.90;51.40
15879;DHT22;61999;51.514;14.614;2022-08-03T00:51:46;14.90;51.50
15879;DHT22;61999;51.514;14.614;2022-08-03T00:54:14;14.90;51.70
15879;DHT22;61999;51.514;14.614;2022-08-03T00:56:43;14.80;51.80
15879;DHT22;61999;51.514;14.614;2022-08-03T00:59:13;14.80;51.90
15879;DHT22;61999;51.514;14.614;2022-08-03T01:01:42;14.80;52.10
15879;DHT22;61999;51.514;14.614;2022-08-03T01:04:10;14.80;52.20
15879;DHT22;61999;51.514;14.614;2022-08-03T01:06:53;14.70;52.20
15879;DHT22;61999;51.514;14.614;2022-08-03T01:09:40;14.80;52.70
15879;DHT22;61999;51.514;14.614;2022-08-03T01:12:23;14.70;52.30
15879;DHT22;61999;51.514;14.614;2022-08-03T01:15:02;14.70;52.30
15879;DHT22;61999;51.514;14.614;2022-08-03T01:17:42;14.60;52.30
15879;DHT22;61999;51.514;14.614;2022-08-03T01:20:17;14.60;52.30
15879;DHT22;61999;51.514;14.614;2022-08-03T01:23:05;14.60;52.40
15879;DHT22;61999;51.514;14.614;2022-08-03T01:26:02;14.50;52.40
15879;DHT22;61999;51.514;14.614;2022-08-03T01:29:03;14.50;53.20
15879;DHT22;61999;51.514;14.614;2022-08-03T01:32:02;14.40;52.70
15879;DHT22;61999;51.514;14.614;2022-08-03T01:34:40;14.30;52.80
15879;DHT22;61999;51.514;14.614;2022-08-03T01:37:17;14.30;52.90
15879;DHT22;61999;51.514;14.614;2022-08-03T01:39:53;14.30;52.90
15879;DHT22;61999;51.514;14.614;2022-08-03T01:42:25;14.20;52.90
15879;DHT22;61999;51.514;14.614;2022-08-03T01:44:56;14.20;53.10
15879;DHT22;61999;51.514;14.614;2022-08-03T01:47:27;14.20;53.10
15879;DHT22;61999;51.514;14.614;2022-08-03T01:49:57;14.20;53.20
15879;DHT22;61999;51.514;14.614;2022-08-03T01:52:29;14.10;53.20
15879;DHT22;61999;51.514;14.614;2022-08-03T01:55:02;14.10;53.30
15879;DHT22;61999;51.514;14.614;2022-08-03T01:57:32;14.10;53.50
15879;DHT22;61999;51.514;14.614;2022-08-03T02:00:04;14.00;53.60
15879;DHT22;61999;51.514;14.614;2022-08-03T02:02:37;14.00;53.70
15879;DHT22;61999;51.514;14.614;2022-08-03T02:05:09;14.00;53.80
15879;DHT22;61999;51.514;14.614;2022-08-03T02:07:40;14.00;53.80
15879;DHT22;61999;51.514;14.614;2022-08-03T02:10:11;14.00;53.90
15879;DHT22;61999;51.514;14.614;2022-08-03T02:12:42;13.90;53.90
15879;DHT22;61999;51.514;14.614;2022-08-03T02:15:15;13.90;53.90
15879;DHT22;61999;51.514;14.614;2022-08-03T02:17:47;13.90;53.90
15879;DHT22;61999;51.514;14.614;2022-08-03T02:20:17;13.80;54.10
15879;DHT22;61999;51.514;14.614;2022-08-03T02:22:46;13.80;54.10
15879;DHT22;61999;51.514;14.614;2022-08-03T02:25:15;13.80;54.20
15879;DHT22;61999;51.514;14.614;2022-08-03T02:27:48;13.70;54.80
15879;DHT22;61999;51.514;14.614;2022-08-03T02:30:19;13.70;54.20
15879;DHT22;61999;51.514;14.614;2022-08-03T02:32:53;13.70;54.20
15879;DHT22;61999;51.514;14.614;2022-08-03T02:35:24;13.70;54.20
15879;DHT22;61999;51.514;14.614;2022-08-03T02:37:58;13.60;54.20
15879;DHT22;61999;51.514;14.614;2022-08-03T02:40:30;13.60;54.30
15879;DHT22;61999;51.514;14.614;2022-08-03T02:43:02;13.50;54.40
15879;DHT22;61999;51.514;14.614;2022-08-03T02:45:35;13.50;54.40
15879;DHT22;61999;51.514;14.614;2022-08-03T02:48:16;13.50;54.60
15879;DHT22;61999;51.514;14.614;2022-08-03T02:50:50;13.50;54.70
15879;DHT22;61999;51.514;14.614;2022-08-03T02:53:20;13.50;54.80
15879;DHT22;61999;51.514;14.614;2022-08-03T02:55:49;13.40;55.00
15879;DHT22;61999;51.514;14.614;2022-08-03T02:58:19;13.40;55.10
15879;DHT22;61999;51.514;14.614;2022-08-03T03:00:50;13.40;55.00
15879;DHT22;61999;51.514;14.614;2022-08-03T03:03:22;13.40;55.00
15879;DHT22;61999;51.514;14.614;2022-08-03T03:05:51;13.30;54.90
15879;DHT22;61999;51.514;14.614;2022-08-03T03:08:24;13.30;54.90
15879;DHT22;61999;51.514;14.614;2022-08-03T03:10:55;13.30;55.00
15879;DHT22;61999;51.514;14.614;2022-08-03T03:13:26;13.20;55.00
15879;DHT22;61999;51.514;14.614;2022-08-03T03:15:59;13.20;55.20
15879;DHT22;61999;51.514;14.614;2022-08-03T03:18:30;13.20;55.20
15879;DHT22;61999;51.514;14.614;2022-08-03T03:21:02;13.20;55.30
15879;DHT22;61999;51.514;14.614;2022-08-03T03:23:34;13.10;55.30
15879;DHT22;61999;51.514;14.614;2022-08-03T03:26:04;13.10;55.40
15879;DHT22;61999;51.514;14.614;2022-08-03T03:28:33;13.10;55.40
15879;DHT22;61999;51.514;14.614;2022-08-03T03:31:04;13.10;55.50
15879;DHT22;61999;51.514;14.614;2022-08-03T03:33:34;13.00;55.60
15879;DHT22;61999;51.514;14.614;2022-08-03T03:36:04;13.00;55.60
15879;DHT22;61999;51.514;14.614;2022-08-03T03:38:33;13.00;55.60
15879;DHT22;61999;51.514;14.614;2022-08-03T03:41:01;13.00;55.80
15879;DHT22;61999;51.514;14.614;2022-08-03T03:43:31;13.00;55.80
15879;DHT22;61999;51.514;14.614;2022-08-03T03:45:59;13.00;55.80
15879;DHT22;61999;51.514;14.614;2022-08-03T03:48:27;13.00;55.90
15879;DHT22;61999;51.514;14.614;2022-08-03T03:50:57;12.90;55.90
15879;DHT22;61999;51.514;14.614;2022-08-03T03:53:26;12.90;56.00
15879;DHT22;61999;51.514;14.614;2022-08-03T03:55:53;12.90;56.10
15879;DHT22;61999;51.514;14.614;2022-08-03T03:58:21;12.90;56.10
15879;DHT22;61999;51.514;14.614;2022-08-03T04:00:50;12.90;56.20
15879;DHT22;61999;51.514;14.614;2022-08-03T04:03:19;12.90;56.40
15879;DHT22;61999;51.514;14.614;2022-08-03T04:05:47;12.90;56.40
15879;DHT22;61999;51.514;14.614;2022-08-03T04:08:35;12.90;56.50
15879;DHT22;61999;51.514;14.614;2022-08-03T04:11:23;12.90;56.50
15879;DHT22;61999;51.514;14.614;2022-08-03T04:13:56;12.90;56.60
15879;DHT22;61999;51.514;14.614;2022-08-03T04:16:30;12.90;56.70
15879;DHT22;61999;51.514;14.614;2022-08-03T04:19:03;13.00;56.90
15879;DHT22;61999;51.514;14.614;2022-08-03T04:21:38;13.00;56.90
15879;DHT22;61999;51.514;14.614;2022-08-03T04:24:10;13.00;56.90
15879;DHT22;61999;51.514;14.614;2022-08-03T04:26:42;13.00;57.00
15879;DHT22;61999;51.514;14.614;2022-08-03T04:29:15;13.00;57.10
15879;DHT22;61999;51.514;14.614;2022-08-03T04:31:46;13.00;57.20
15879;DHT22;61999;51.514;14.614;2022-08-03T04:34:15;13.00;57.30
15879;DHT22;61999;51.514;14.614;2022-08-03T04:36:47;13.10;57.40
15879;DHT22;61999;51.514;14.614;2022-08-03T04:39:22;13.10;57.40
15879;DHT22;61999;51.514;14.614;2022-08-03T04:41:53;13.10;57.50
15879;DHT22;61999;51.514;14.614;2022-08-03T04:44:26;13.20;57.60
15879;DHT22;61999;51.514;14.614;2022-08-03T04:46:56;13.20;57.90
15879;DHT22;61999;51.514;14.614;2022-08-03T04:49:26;13.30;58.60
15879;DHT22;61999;51.514;14.614;2022-08-03T04:51:56;13.40;58.90
15879;DHT22;61999;51.514;14.614;2022-08-03T04:54:25;13.50;58.70
15879;DHT22;61999;51.514;14.614;2022-08-03T04:56:53;13.50;58.80
15879;DHT22;61999;51.514;14.614;2022-08-03T04:59:21;13.60;58.80
15879;DHT22;61999;51.514;14.614;2022-08-03T05:01:49;13.60;58.70
15879;DHT22;61999;51.514;14.614;2022-08-03T05:04:17;13.70;58.90
15879;DHT22;61999;51.514;14.614;2022-08-03T05:06:46;13.80;59.10
15879;DHT22;61999;51.514;14.614;2022-08-03T05:09:14;13.90;59.00
15879;DHT22;61999;51.514;14.614;2022-08-03T05:11:43;13.90;59.20
15879;DHT22;61999;51.514;14.614;2022-08-03T05:14:11;14.00;59.40
15879;DHT22;61999;51.514;14.614;2022-08-03T05:16:39;14.00;60.20
15879;DHT22;61999;51.514;14.614;2022-08-03T05:19:07;14.00;59.60
15879;DHT22;61999;51.514;14.614;2022-08-03T05:21:35;14.20;59.50
15879;DHT22;61999;51.514;14.614;2022-08-03T05:24:03;14.20;59.50
15879;DHT22;61999;51.514;14.614;2022-08-03T05:26:31;14.30;59.40
15879;DHT22;61999;51.514;14.614;2022-08-03T05:29:00;14.40;59.30
15879;DHT22;61999;51.514;14.614;2022-08-03T05:31:29;14.50;59.20
15879;DHT22;61999;51.514;14.614;2022-08-03T05:33:57;14.50;59.20
15879;DHT22;61999;51.514;14.614;2022-08-03T05:36:25;14.70;59.50
15879;DHT22;61999;51.514;14.614;2022-08-03T05:38:53;14.80;59.60
15879;DHT22;61999;51.514;14.614;2022-08-03T05:41:24;15.00;59.50
15879;DHT22;61999;51.514;14.614;2022-08-03T05:43:52;15.10;59.30
15879;DHT22;61999;51.514;14.614;2022-08-03T05:46:22;15.20;59.20
15879;DHT22;61999;51.514;14.614;2022-08-03T05:48:51;15.30;59.10
15879;DHT22;61999;51.514;14.614;2022-08-03T05:51:19;15.40;59.10
15879;DHT22;61999;51.514;14.614;2022-08-03T05:53:47;15.60;58.80
15879;DHT22;61999;51.514;14.614;2022-08-03T05:56:15;15.60;58.60
15879;DHT22;61999;51.514;14.614;2022-08-03T05:58:44;15.80;58.50
15879;DHT22;61999;51.514;14.614;2022-08-03T06:01:13;15.80;58.30
15879;DHT22;61999;51.514;14.614;2022-08-03T06:03:44;15.90;58.10
15879;DHT22;61999;51.514;14.614;2022-08-03T06:06:13;16.00;58.00
15879;DHT22;61999;51.514;14.614;2022-08-03T06:08:42;16.10;58.00
15879;DHT22;61999;51.514;14.614;2022-08-03T06:11:12;16.20;57.90
15879;DHT22;61999;51.514;14.614;2022-08-03T06:13:40;16.30;57.70
15879;DHT22;61999;51.514;14.614;2022-08-03T06:16:08;16.40;57.60
15879;DHT22;61999;51.514;14.614;2022-08-03T06:18:36;16.40;57.40
15879;DHT22;61999;51.514;14.614;2022-08-03T06:21:07;16.50;57.30
15879;DHT22;61999;51.514;14.614;2022-08-03T06:23:35;16.50;57.20
15879;DHT22;61999;51.514;14.614;2022-08-03T06:26:03;16.60;57.10
15879;DHT22;61999;51.514;14.614;2022-08-03T06:28:31;16.70;56.90
15879;DHT22;61999;51.514;14.614;2022-08-03T06:31:09;16.80;56.70
15879;DHT22;61999;51.514;14.614;2022-08-03T06:33:37;16.90;56.50
15879;DHT22;61999;51.514;14.614;2022-08-03T06:36:07;17.00;56.60
15879;DHT22;61999;51.514;14.614;2022-08-03T06:38:35;17.00;56.40
15879;DHT22;61999;51.514;14.614;2022-08-03T06:41:03;17.10;56.40
15879;DHT22;61999;51.514;14.614;2022-08-03T06:43:31;17.20;56.30
15879;DHT22;61999;51.514;14.614;2022-08-03T06:46:01;17.20;56.30
15879;DHT22;61999;51.514;14.614;2022-08-03T06:48:30;17.20;56.30
15879;DHT22;61999;51.514;14.614;2022-08-03T06:50:58;17.30;56.30
15879;DHT22;61999;51.514;14.614;2022-08-03T06:53:27;17.30;56.00
15879;DHT22;61999;51.514;14.614;2022-08-03T06:55:55;17.40;55.90
15879;DHT22;61999;51.514;14.614;2022-08-03T06:58:23;17.50;55.40
15879;DHT22;61999;51.514;14.614;2022-08-03T07:00:51;17.60;55.20
15879;DHT22;61999;51.514;14.614;2022-08-03T07:03:19;17.70;55.20
15879;DHT22;61999;51.514;14.614;2022-08-03T07:05:47;17.70;55.10
15879;DHT22;61999;51.514;14.614;2022-08-03T07:08:17;17.80;53.90
15879;DHT22;61999;51.514;14.614;2022-08-03T07:10:46;17.80;54.40
15879;DHT22;61999;51.514;14.614;2022-08-03T07:13:14;17.90;54.10
15879;DHT22;61999;51.514;14.614;2022-08-03T07:15:42;17.90;54.30
15879;DHT22;61999;51.514;14.614;2022-08-03T07:18:10;18.00;54.20
15879;DHT22;61999;51.514;14.614;2022-08-03T07:20:38;18.10;54.10
15879;DHT22;61999;51.514;14.614;2022-08-03T07:23:06;18.30;53.90
15879;DHT22;61999;51.514;14.614;2022-08-03T07:25:35;18.40;53.60
15879;DHT22;61999;51.514;14.614;2022-08-03T07:28:04;18.50;53.80
15879;DHT22;61999;51.514;14.614;2022-08-03T07:30:32;18.70;52.50
15879;DHT22;61999;51.514;14.614;2022-08-03T07:33:01;18.70;52.70
15879;DHT22;61999;51.514;14.614;2022-08-03T07:35:29;18.80;53.20
15879;DHT22;61999;51.514;14.614;2022-08-03T07:37:57;18.80;52.10
15879;DHT22;61999;51.514;14.614;2022-08-03T07:40:25;19.00;52.00
15879;DHT22;61999;51.514;14.614;2022-08-03T07:42:53;19.00;50.30
15879;DHT22;61999;51.514;14.614;2022-08-03T07:45:22;19.10;50.00
15879;DHT22;61999;51.514;14.614;2022-08-03T07:47:52;19.30;49.70
15879;DHT22;61999;51.514;14.614;2022-08-03T07:50:20;19.30;50.50
15879;DHT22;61999;51.514;14.614;2022-08-03T07:52:48;19.50;50.50
15879;DHT22;61999;51.514;14.614;2022-08-03T07:55:20;19.70;50.50
15879;DHT22;61999;51.514;14.614;2022-08-03T07:57:59;19.90;50.30
15879;DHT22;61999;51.514;14.614;2022-08-03T08:00:30;20.00;48.10
15879;DHT22;61999;51.514;14.614;2022-08-03T08:02:58;20.00;46.80
15879;DHT22;61999;51.514;14.614;2022-08-03T08:05:26;20.20;49.10
15879;DHT22;61999;51.514;14.614;2022-08-03T08:07:55;20.40;49.10
15879;DHT22;61999;51.514;14.614;2022-08-03T08:10:23;20.50;47.80
15879;DHT22;61999;51.514;14.614;2022-08-03T08:12:51;20.70;47.30
15879;DHT22;61999;51.514;14.614;2022-08-03T08:15:19;20.90;47.30
15879;DHT22;61999;51.514;14.614;2022-08-03T08:17:50;20.90;45.00
15879;DHT22;61999;51.514;14.614;2022-08-03T08:20:21;21.00;45.20
15879;DHT22;61999;51.514;14.614;2022-08-03T08:22:51;21.30;43.50
15879;DHT22;61999;51.514;14.614;2022-08-03T08:25:19;21.30;44.60
15879;DHT22;61999;51.514;14.614;2022-08-03T08:27:48;21.40;44.40
15879;DHT22;61999;51.514;14.614;2022-08-03T08:30:19;21.60;42.50
15879;DHT22;61999;51.514;14.614;2022-08-03T08:32:50;21.90;44.80
15879;DHT22;61999;51.514;14.614;2022-08-03T08:35:21;22.20;44.10
15879;DHT22;61999;51.514;14.614;2022-08-03T08:37:49;22.40;44.20
15879;DHT22;61999;51.514;14.614;2022-08-03T08:40:19;22.50;43.80
15879;DHT22;61999;51.514;14.614;2022-08-03T08:42:49;22.60;43.70
15879;DHT22;61999;51.514;14.614;2022-08-03T08:45:23;22.80;44.00
15879;DHT22;61999;51.514;14.614;2022-08-03T08:47:54;22.90;42.50
15879;DHT22;61999;51.514;14.614;2022-08-03T08:50:25;23.00;39.80
15879;DHT22;61999;51.514;14.614;2022-08-03T08:52:55;23.10;39.80
15879;DHT22;61999;51.514;14.614;2022-08-03T08:55:27;23.40;40.90
15879;DHT22;61999;51.514;14.614;2022-08-03T08:57:58;23.70;40.20
15879;DHT22;61999;51.514;14.614;2022-08-03T09:00:29;23.90;41.30
15879;DHT22;61999;51.514;14.614;2022-08-03T09:02:59;24.10;41.40
15879;DHT22;61999;51.514;14.614;2022-08-03T09:05:28;24.30;41.00
15879;DHT22;61999;51.514;14.614;2022-08-03T09:08:18;24.50;40.90
15879;DHT22;61999;51.514;14.614;2022-08-03T09:10:47;24.60;41.10
15879;DHT22;61999;51.514;14.614;2022-08-03T09:13:15;24.80;40.50
15879;DHT22;61999;51.514;14.614;2022-08-03T09:15:45;25.00;40.20
15879;DHT22;61999;51.514;14.614;2022-08-03T09:18:27;25.10;38.30
15879;DHT22;61999;51.514;14.614;2022-08-03T09:21:12;25.20;39.30
15879;DHT22;61999;51.514;14.614;2022-08-03T09:23:57;25.50;37.90
15879;DHT22;61999;51.514;14.614;2022-08-03T09:26:29;25.60;38.30
15879;DHT22;61999;51.514;14.614;2022-08-03T09:29:00;25.90;38.10
15879;DHT22;61999;51.514;14.614;2022-08-03T09:31:34;26.10;38.60
15879;DHT22;61999;51.514;14.614;2022-08-03T09:34:06;26.50;36.50
15879;DHT22;61999;51.514;14.614;2022-08-03T09:36:38;26.70;36.20
15879;DHT22;61999;51.514;14.614;2022-08-03T09:39:10;26.90;36.40
15879;DHT22;61999;51.514;14.614;2022-08-03T09:41:41;27.20;36.20
15879;DHT22;61999;51.514;14.614;2022-08-03T09:44:11;27.60;32.70
15879;DHT22;61999;51.514;14.614;2022-08-03T09:46:47;27.70;32.50
15879;DHT22;61999;51.514;14.614;2022-08-03T09:49:17;27.90;33.10
15879;DHT22;61999;51.514;14.614;2022-08-03T09:51:45;27.90;32.00
15879;DHT22;61999;51.514;14.614;2022-08-03T09:54:25;28.10;32.20
15879;DHT22;61999;51.514;14.614;2022-08-03T09:56:54;28.10;33.10
15879;DHT22;61999;51.514;14.614;2022-08-03T09:59:25;28.20;32.20
15879;DHT22;61999;51.514;14.614;2022-08-03T10:01:54;28.40;30.70
15879;DHT22;61999;51.514;14.614;2022-08-03T10:04:25;28.70;32.40
15879;DHT22;61999;51.514;14.614;2022-08-03T10:07:05;28.80;31.30
15879;DHT22;61999;51.514;14.614;2022-08-03T10:09:35;29.00;30.70
15879;DHT22;61999;51.514;14.614;2022-08-03T10:12:09;29.30;29.70
15879;DHT22;61999;51.514;14.614;2022-08-03T10:14:39;29.60;29.50
15879;DHT22;61999;51.514;14.614;2022-08-03T10:17:11;29.50;30.10
15879;DHT22;61999;51.514;14.614;2022-08-03T10:19:40;29.50;30.70
15879;DHT22;61999;51.514;14.614;2022-08-03T10:22:12;29.80;29.20
15879;DHT22;61999;51.514;14.614;2022-08-03T10:24:47;29.90;28.60
15879;DHT22;61999;51.514;14.614;2022-08-03T10:27:21;29.80;28.60
15879;DHT22;61999;51.514;14.614;2022-08-03T10:29:54;29.50;28.50
15879;DHT22;61999;51.514;14.614;2022-08-03T10:32:29;29.40;30.10
15879;DHT22;61999;51.514;14.614;2022-08-03T10:35:05;29.40;29.50
15879;DHT22;61999;51.514;14.614;2022-08-03T10:37:40;29.70;29.00
15879;DHT22;61999;51.514;14.614;2022-08-03T10:40:12;29.70;29.50
15879;DHT22;61999;51.514;14.614;2022-08-03T10:42:55;29.90;28.80
15879;DHT22;61999;51.514;14.614;2022-08-03T10:45:27;30.00;28.60
15879;DHT22;61999;51.514;14.614;2022-08-03T10:47:56;30.20;28.70
15879;DHT22;61999;51.514;14.614;2022-08-03T10:50:27;30.30;27.90
15879;DHT22;61999;51.514;14.614;2022-08-03T10:52:56;30.20;29.50
15879;DHT22;61999;51.514;14.614;2022-08-03T10:55:33;30.50;28.70
15879;DHT22;61999;51.514;14.614;2022-08-03T10:58:47;30.60;29.80
15879;DHT22;61999;51.514;14.614;2022-08-03T11:01:17;31.20;27.70
15879;DHT22;61999;51.514;14.614;2022-08-03T11:04:13;31.60;27.10
15879;DHT22;61999;51.514;14.614;2022-08-03T11:07:17;31.80;27.40
15879;DHT22;61999;51.514;14.614;2022-08-03T11:09:49;32.10;27.90
15879;DHT22;61999;51.514;14.614;2022-08-03T11:12:22;32.20;25.80
15879;DHT22;61999;51.514;14.614;2022-08-03T11:14:52;32.50;27.70
15879;DHT22;61999;51.514;14.614;2022-08-03T11:17:21;32.50;25.40
15879;DHT22;61999;51.514;14.614;2022-08-03T11:19:51;32.40;25.50
15879;DHT22;61999;51.514;14.614;2022-08-03T11:22:21;32.30;26.30
15879;DHT22;61999;51.514;14.614;2022-08-03T11:25:00;32.40;27.40
15879;DHT22;61999;51.514;14.614;2022-08-03T11:27:30;32.90;27.20
15879;DHT22;61999;51.514;14.614;2022-08-03T11:30:05;33.20;26.90
15879;DHT22;61999;51.514;14.614;2022-08-03T11:32:52;33.80;25.00
15879;DHT22;61999;51.514;14.614;2022-08-03T11:35:25;33.70;24.60
15879;DHT22;61999;51.514;14.614;2022-08-03T11:38:03;33.70;24.10
15879;DHT22;61999;51.514;14.614;2022-08-03T11:40:35;33.50;24.80
15879;DHT22;61999;51.514;14.614;2022-08-03T11:43:06;33.80;24.80
15879;DHT22;61999;51.514;14.614;2022-08-03T11:45:36;34.00;24.40
15879;DHT22;61999;51.514;14.614;2022-08-03T11:48:15;34.20;24.50
15879;DHT22;61999;51.514;14.614;2022-08-03T11:50:43;34.10;24.00
15879;DHT22;61999;51.514;14.614;2022-08-03T11:53:15;33.90;23.50
15879;DHT22;61999;51.514;14.614;2022-08-03T11:55:46;34.10;24.70
15879;DHT22;61999;51.514;14.614;2022-08-03T11:58:19;34.30;24.40
15879;DHT22;61999;51.514;14.614;2022-08-03T12:00:49;34.20;25.00
15879;DHT22;61999;51.514;14.614;2022-08-03T12:03:18;34.40;24.30
15879;DHT22;61999;51.514;14.614;2022-08-03T12:05:49;34.60;23.40
15879;DHT22;61999;51.514;14.614;2022-08-03T12:08:30;34.90;23.40
15879;DHT22;61999;51.514;14.614;2022-08-03T12:11:01;35.50;25.40
15879;DHT22;61999;51.514;14.614;2022-08-03T12:13:36;35.90;24.00
15879;DHT22;61999;51.514;14.614;2022-08-03T12:16:06;36.60;22.30
15879;DHT22;61999;51.514;14.614;2022-08-03T12:18:35;36.70;21.80
15879;DHT22;61999;51.514;14.614;2022-08-03T12:21:07;36.70;23.10
15879;DHT22;61999;51.514;14.614;2022-08-03T12:23:38;37.10;21.40
15879;DHT22;61999;51.514;14.614;2022-08-03T12:26:08;37.10;21.70
15879;DHT22;61999;51.514;14.614;2022-08-03T12:28:37;37.00;20.60
15879;DHT22;61999;51.514;14.614;2022-08-03T12:31:15;36.80;22.70
15879;DHT22;61999;51.514;14.614;2022-08-03T12:34:04;37.00;22.50
15879;DHT22;61999;51.514;14.614;2022-08-03T12:36:35;37.10;21.40
15879;DHT22;61999;51.514;14.614;2022-08-03T12:39:07;37.10;21.40
15879;DHT22;61999;51.514;14.614;2022-08-03T12:41:39;37.70;20.00
15879;DHT22;61999;51.514;14.614;2022-08-03T12:44:08;38.30;19.70
15879;DHT22;61999;51.514;14.614;2022-08-03T12:46:38;38.40;19.90
15879;DHT22;61999;51.514;14.614;2022-08-03T12:49:10;38.60;21.50
15879;DHT22;61999;51.514;14.614;2022-08-03T12:51:55;39.00;21.80
15879;DHT22;61999;51.514;14.614;2022-08-03T12:54:28;39.30;20.40
15879;DHT22;61999;51.514;14.614;2022-08-03T12:56:58;39.40;19.90
15879;DHT22;61999;51.514;14.614;2022-08-03T12:59:28;39.60;19.90
15879;DHT22;61999;51.514;14.614;2022-08-03T13:01:58;39.50;19.50
15879;DHT22;61999;51.514;14.614;2022-08-03T13:04:28;39.50;20.20
15879;DHT22;61999;51.514;14.614;2022-08-03T13:06:59;39.70;19.70
15879;DHT22;61999;51.514;14.614;2022-08-03T13:09:40;39.50;20.50
15879;DHT22;61999;51.514;14.614;2022-08-03T13:12:11;39.80;20.80
15879;DHT22;61999;51.514;14.614;2022-08-03T13:14:40;39.90;20.10
15879;DHT22;61999;51.514;14.614;2022-08-03T13:17:09;40.10;19.50
15879;DHT22;61999;51.514;14.614;2022-08-03T13:19:38;39.40;18.80
15879;DHT22;61999;51.514;14.614;2022-08-03T13:22:11;39.40;20.60
15879;DHT22;61999;51.514;14.614;2022-08-03T13:24:43;39.50;21.30
15879;DHT22;61999;51.514;14.614;2022-08-03T13:27:14;39.50;21.40
15879;DHT22;61999;51.514;14.614;2022-08-03T13:29:43;39.50;20.20
15879;DHT22;61999;51.514;14.614;2022-08-03T13:32:11;39.00;19.90
15879;DHT22;61999;51.514;14.614;2022-08-03T13:34:39;38.40;20.70
15879;DHT22;61999;51.514;14.614;2022-08-03T13:37:08;38.40;21.10
15879;DHT22;61999;51.514;14.614;2022-08-03T13:40:04;38.70;20.30
15879;DHT22;61999;51.514;14.614;2022-08-03T13:42:58;38.60;20.80
15879;DHT22;61999;51.514;14.614;2022-08-03T13:45:51;38.70;20.80
15879;DHT22;61999;51.514;14.614;2022-08-03T13:48:43;38.60;20.80
15879;DHT22;61999;51.514;14.614;2022-08-03T13:51:35;38.10;20.20
15879;DHT22;61999;51.514;14.614;2022-08-03T13:54:30;37.70;20.40
15879;DHT22;61999;51.514;14.614;2022-08-03T13:57:02;38.10;21.40
15879;DHT22;61999;51.514;14.614;2022-08-03T13:59:30;38.50;20.80
15879;DHT22;61999;51.514;14.614;2022-08-03T14:01:58;39.10;20.70
15879;DHT22;61999;51.514;14.614;2022-08-03T14:04:26;39.20;20.40
15879;DHT22;61999;51.514;14.614;2022-08-03T14:06:55;39.50;20.90
15879;DHT22;61999;51.514;14.614;2022-08-03T14:09:23;39.40;19.40
15879;DHT22;61999;51.514;14.614;2022-08-03T14:11:54;39.60;20.90
15879;DHT22;61999;51.514;14.614;2022-08-03T14:14:23;40.00;20.80
15879;DHT22;61999;51.514;14.614;2022-08-03T14:16:51;39.90;19.50
15879;DHT22;61999;51.514;14.614;2022-08-03T14:19:20;40.00;19.90
15879;DHT22;61999;51.514;14.614;2022-08-03T14:21:48;40.10;19.50
15879;DHT22;61999;51.514;14.614;2022-08-03T14:24:17;40.50;19.00
15879;DHT22;61999;51.514;14.614;2022-08-03T14:26:45;40.50;19.20
15879;DHT22;61999;51.514;14.614;2022-08-03T14:29:13;40.50;20.10
15879;DHT22;61999;51.514;14.614;2022-08-03T14:31:43;40.20;19.30
15879;DHT22;61999;51.514;14.614;2022-08-03T14:34:11;40.40;20.10
15879;DHT22;61999;51.514;14.614;2022-08-03T14:36:39;40.40;19.10
15879;DHT22;61999;51.514;14.614;2022-08-03T14:39:09;40.50;19.60
15879;DHT22;61999;51.514;14.614;2022-08-03T14:41:37;40.40;19.20
15879;DHT22;61999;51.514;14.614;2022-08-03T14:44:06;40.50;18.80
15879;DHT22;61999;51.514;14.614;2022-08-03T14:46:34;41.20;18.50
15879;DHT22;61999;51.514;14.614;2022-08-03T14:49:03;41.00;19.30
15879;DHT22;61999;51.514;14.614;2022-08-03T14:51:32;40.80;18.30
15879;DHT22;61999;51.514;14.614;2022-08-03T14:54:00;40.60;19.80
15879;DHT22;61999;51.514;14.614;2022-08-03T14:56:28;40.80;20.20
15879;DHT22;61999;51.514;14.614;2022-08-03T14:58:56;40.90;19.40
15879;DHT22;61999;51.514;14.614;2022-08-03T15:01:25;40.80;18.50
15879;DHT22;61999;51.514;14.614;2022-08-03T15:03:56;40.70;19.30
15879;DHT22;61999;51.514;14.614;2022-08-03T15:06:26;40.40;19.20
15879;DHT22;61999;51.514;14.614;2022-08-03T15:08:54;40.30;18.90
15879;DHT22;61999;51.514;14.614;2022-08-03T15:11:38;40.30;18.80
15879;DHT22;61999;51.514;14.614;2022-08-03T15:14:06;40.50;19.60
15879;DHT22;61999;51.514;14.614;2022-08-03T15:16:36;40.50;18.80
15879;DHT22;61999;51.514;14.614;2022-08-03T15:19:05;40.60;18.80
15879;DHT22;61999;51.514;14.614;2022-08-03T15:21:34;41.10;18.40
15879;DHT22;61999;51.514;14.614;2022-08-03T15:24:03;41.20;18.30
15879;DHT22;61999;51.514;14.614;2022-08-03T15:26:32;40.90;18.60
15879;DHT22;61999;51.514;14.614;2022-08-03T15:29:03;40.60;19.10
15879;DHT22;61999;51.514;14.614;2022-08-03T15:31:31;40.60;20.30
15879;DHT22;61999;51.514;14.614;2022-08-03T15:34:00;40.60;20.00
15879;DHT22;61999;51.514;14.614;2022-08-03T15:36:28;40.50;19.20
15879;DHT22;61999;51.514;14.614;2022-08-03T15:39:01;40.40;19.10
15879;DHT22;61999;51.514;14.614;2022-08-03T15:41:30;40.10;19.10
15879;DHT22;61999;51.514;14.614;2022-08-03T15:44:00;40.00;19.30